Terminal Aerodrome Forecast
Issued by NWS

Home | Current Version | Previous Version | Text Only | Print | Product List | Glossary On
Versions: 1 2 3 4 5 6 7 8 9 10 11 12
000
FTUS45 KBYZ 250531
TAFLVM
TAF
KLVM 250531Z 2506/2606 25015G25KT P6SM VCSH BKN050
     FM251000 24025G35KT P6SM BKN070
     FM251300 23032G48KT P6SM BKN060
     FM260000 22038G53KT P6SM VCSH BKN050=

USA.gov is the U.S. government's official web portal to all federal, state and local government web resources and services.